Time;durP1;ratioP1;P1;durP2;ratioP2;P2;SDS_P1;SDS_P2;PMS_P1;PMS_P2;Temp;Humidity;BMP_temperature;BMP_pressure;BME280_temperature;BME280_humidity;BME280_pressure;Samples;Min_cycle;Max_cycle;Signal;HPM_P1;HPM_P2
2022/05/14 00:01:08;;;;;;;2.87;1.27;;;;;;;16.57;66.68;98840.38;1686567;85;21077;-64
2022/05/14 00:03:39;;;;;;;3.67;1.55;;;;;;;16.43;66.39;98843.69;1681316;85;20915;-64
2022/05/14 00:06:08;;;;;;;2.58;1.40;;;;;;;16.32;66.35;98851.13;1681643;85;20903;-64
2022/05/14 00:08:34;;;;;;;2.50;1.25;;;;;;;16.24;66.70;98854.09;1681523;85;21176;-65
2022/05/14 00:13:47;;;;;;;2.00;1.47;;;;;;;16.09;69.00;98852.29;1687234;85;20965;-63
2022/05/14 00:16:14;;;;;;;4.10;1.47;;;;;;;16.03;69.08;98854.53;1686138;85;20994;-63
2022/05/14 00:18:41;;;;;;;5.47;1.90;;;;;;;15.97;69.41;98842.81;1681336;85;20990;-63
2022/05/14 00:21:07;;;;;;;2.27;1.35;;;;;;;15.90;69.33;98832.64;1686946;85;21258;-64
2022/05/14 00:23:34;;;;;;;2.67;1.60;;;;;;;15.87;69.58;98834.96;1687113;85;20960;-64
2022/05/14 00:26:01;;;;;;;2.85;1.90;;;;;;;15.82;69.54;98828.09;1686592;85;21418;-63
2022/05/14 00:28:27;;;;;;;3.72;2.95;;;;;;;15.78;69.55;98821.00;1686994;85;20956;-66
2022/05/14 00:30:54;;;;;;;6.28;4.97;;;;;;;15.74;69.25;98813.11;1684709;85;20893;-64
2022/05/14 00:33:21;;;;;;;6.00;4.03;;;;;;;15.74;69.13;98817.64;1679389;85;21867;-64
2022/05/14 00:35:47;;;;;;;5.70;5.10;;;;;;;15.71;68.99;98824.27;1689605;83;20884;-65
2022/05/14 00:38:14;;;;;;;5.58;5.08;;;;;;;15.74;69.22;98824.34;1679055;83;20961;-63
2022/05/14 00:40:46;;;;;;;7.15;6.12;;;;;;;15.73;69.47;98826.20;1679411;85;20944;-65
2022/05/14 00:43:13;;;;;;;10.32;5.65;;;;;;;15.73;69.98;98814.64;1679318;85;21036;-64
2022/05/14 00:45:46;;;;;;;10.70;7.05;;;;;;;15.71;70.32;98807.34;1679498;85;21168;-64
2022/05/14 00:48:12;;;;;;;8.50;6.62;;;;;;;15.69;70.98;98811.60;1678377;85;20972;-64
2022/05/14 00:50:51;;;;;;;12.45;7.30;;;;;;;15.71;71.24;98815.39;1679335;85;20949;-65
2022/05/14 00:53:28;;;;;;;13.45;10.75;;;;;;;15.71;71.56;98821.58;1678879;85;20985;-64
2022/05/14 00:55:57;;;;;;;14.03;10.75;;;;;;;15.72;71.69;98817.05;1679348;85;20942;-64
2022/05/14 00:58:51;;;;;;;17.25;11.97;;;;;;;15.70;71.74;98803.84;1677462;85;21801;-62
2022/05/14 01:01:17;;;;;;;14.95;12.65;;;;;;;15.69;71.89;98790.15;1679271;85;20933;-63
2022/05/14 01:03:44;;;;;;;12.50;11.05;;;;;;;15.65;72.09;98784.91;1679388;85;20874;-65
2022/05/14 01:06:14;;;;;;;15.35;12.50;;;;;;;15.63;72.07;98789.67;1678792;85;21694;-63
2022/05/14 01:08:41;;;;;;;14.95;11.00;;;;;;;15.60;72.08;98786.09;1673738;85;20971;-64
2022/05/14 01:11:08;;;;;;;10.38;8.83;;;;;;;15.61;72.39;98790.94;1673699;85;21241;-63
2022/05/14 01:13:35;;;;;;;9.50;7.20;;;;;;;15.63;72.62;98807.62;1673571;85;20987;-63
2022/05/14 01:16:02;;;;;;;12.75;7.62;;;;;;;15.64;72.75;98811.95;1673744;85;21512;-63
2022/05/14 01:18:33;;;;;;;11.68;8.08;;;;;;;15.64;72.38;98823.50;1673541;85;21131;-62
2022/05/14 01:21:04;;;;;;;7.10;6.40;;;;;;;15.64;72.22;98824.84;1674055;85;21019;-63
2022/05/14 01:26:41;;;;;;;5.92;4.45;;;;;;;15.59;72.32;98813.92;1673930;85;21057;-61
2022/05/14 01:29:22;;;;;;;8.35;5.58;;;;;;;15.56;72.44;98810.36;1673882;85;21051;-63
2022/05/14 01:31:52;;;;;;;9.33;5.78;;;;;;;15.53;72.80;98798.73;1673691;85;21530;-64
2022/05/14 01:34:23;;;;;;;8.63;5.75;;;;;;;15.52;72.81;98774.30;1673770;85;21556;-63
2022/05/14 01:36:50;;;;;;;11.45;7.62;;;;;;;15.52;73.13;98766.25;1675147;85;21271;-63
2022/05/14 01:39:19;;;;;;;12.65;9.60;;;;;;;15.49;73.06;98774.72;1679255;85;21530;-65
2022/05/14 01:41:45;;;;;;;11.93;8.65;;;;;;;15.47;72.53;98770.11;1679298;85;20936;-63
2022/05/14 01:44:12;;;;;;;11.30;7.75;;;;;;;15.46;72.45;98766.32;1679227;85;21581;-62
2022/05/14 01:46:39;;;;;;;9.83;6.72;;;;;;;15.39;72.33;98759.63;1675001;85;21036;-63
2022/05/14 01:49:06;;;;;;;9.43;6.53;;;;;;;15.37;72.28;98767.06;1653998;85;22053;-64
2022/05/14 01:51:33;;;;;;;9.03;6.80;;;;;;;15.36;72.27;98768.09;1673580;85;20963;-64
2022/05/14 01:54:00;;;;;;;10.13;7.22;;;;;;;15.35;72.52;98768.64;1673744;85;20967;-64
2022/05/14 01:56:27;;;;;;;9.20;7.03;;;;;;;15.34;72.69;98767.50;1654387;85;21056;-66
2022/05/14 01:58:53;;;;;;;10.10;7.03;;;;;;;15.30;72.93;98775.69;1673677;85;21011;-64
2022/05/14 02:01:33;;;;;;;10.43;7.72;;;;;;;15.29;73.18;98782.07;1673700;85;21152;-63
2022/05/14 02:04:06;;;;;;;10.72;7.30;;;;;;;15.27;72.91;98791.67;1673661;85;21509;-63
2022/05/14 02:06:33;;;;;;;9.03;5.80;;;;;;;15.27;72.98;98784.98;1673981;85;21067;-63
2022/05/14 02:09:01;;;;;;;12.58;8.30;;;;;;;15.28;73.09;98785.27;1673786;85;21028;-63
2022/05/14 02:11:29;;;;;;;11.48;7.55;;;;;;;15.26;73.20;98778.48;1673871;85;21632;-63
2022/05/14 02:13:57;;;;;;;10.10;7.15;;;;;;;15.24;73.59;98777.88;1672950;85;21183;-63
2022/05/14 02:16:23;;;;;;;11.45;7.10;;;;;;;15.22;73.91;98772.75;1673728;85;21003;-63
2022/05/14 02:18:50;;;;;;;8.03;6.30;;;;;;;15.23;74.19;98768.19;1673707;85;20947;-65
2022/05/14 02:21:20;;;;;;;8.40;6.58;;;;;;;15.22;74.18;98770.59;1673638;85;21079;-63
2022/05/14 02:23:48;;;;;;;9.33;6.20;;;;;;;15.23;74.07;98766.85;1673919;85;20936;-63
2022/05/14 02:26:14;;;;;;;7.35;5.53;;;;;;;15.25;74.11;98771.50;1673624;85;21134;-62
2022/05/14 02:28:41;;;;;;;9.13;5.87;;;;;;;15.26;74.31;98773.95;1673848;85;20998;-65
2022/05/14 02:31:08;;;;;;;7.58;6.35;;;;;;;15.26;74.24;98766.42;1674648;85;21065;-63
2022/05/14 02:33:35;;;;;;;6.65;4.65;;;;;;;15.24;74.18;98776.03;1681313;85;20951;-64
2022/05/14 02:36:03;;;;;;;7.08;5.00;;;;;;;15.24;74.35;98773.34;1681452;85;21519;-65
2022/05/14 02:38:31;;;;;;;5.28;3.87;;;;;;;15.24;74.44;98772.52;1681723;85;21306;-61
2022/05/14 02:40:58;;;;;;;5.35;4.25;;;;;;;15.22;74.56;98776.77;1681672;85;20931;-64
2022/05/14 02:43:25;;;;;;;7.80;4.40;;;;;;;15.22;74.67;98782.64;1681609;85;20943;-61
2022/05/14 02:45:52;;;;;;;5.83;3.92;;;;;;;15.21;74.83;98780.98;1681382;85;21007;-62
2022/05/14 02:48:19;;;;;;;9.48;6.85;;;;;;;15.19;75.05;98787.09;1681668;85;21042;-63
2022/05/14 02:50:47;;;;;;;18.10;11.73;;;;;;;15.20;75.21;98792.22;1681383;85;21148;-62
2022/05/14 02:53:13;;;;;;;24.27;15.70;;;;;;;15.20;75.05;98796.78;1681176;85;20983;-62
2022/05/14 02:55:41;;;;;;;22.27;14.78;;;;;;;15.23;74.60;98797.66;1681365;85;21051;-63
2022/05/14 02:58:07;;;;;;;19.90;13.40;;;;;;;15.24;74.36;98797.98;1681740;85;21027;-64
2022/05/14 03:00:34;;;;;;;20.50;13.03;;;;;;;15.23;74.54;98804.36;1681390;85;21466;-64
2022/05/14 03:03:00;;;;;;;17.45;10.88;;;;;;;15.20;74.77;98810.17;1681405;85;21107;-64
2022/05/14 03:05:28;;;;;;;10.88;8.93;;;;;;;15.17;75.06;98807.92;1681260;85;21010;-64
2022/05/14 03:07:56;;;;;;;7.72;6.03;;;;;;;15.20;75.14;98816.88;1685110;85;21004;-64
2022/05/14 03:10:23;;;;;;;5.55;4.30;;;;;;;15.18;75.24;98818.41;1686955;85;22381;-64
2022/05/14 03:12:51;;;;;;;3.90;2.72;;;;;;;15.20;75.09;98826.25;1687339;84;20925;-63
2022/05/14 03:15:18;;;;;;;3.75;2.85;;;;;;;15.20;75.11;98831.61;1687215;85;21289;-64
2022/05/14 03:17:46;;;;;;;2.80;2.33;;;;;;;15.24;74.97;98838.17;1686544;85;21402;-64
2022/05/14 03:20:13;;;;;;;2.58;2.37;;;;;;;15.25;74.95;98834.47;1686970;84;21008;-61
2022/05/14 03:22:40;;;;;;;3.25;2.85;;;;;;;15.25;75.04;98847.31;1687061;85;21079;-63
2022/05/14 03:25:08;;;;;;;2.80;2.52;;;;;;;15.26;74.97;98844.13;1687007;85;20944;-65
2022/05/14 03:27:35;;;;;;;3.60;2.45;;;;;;;15.27;74.91;98840.42;1685410;85;21024;-64
2022/05/14 03:30:02;;;;;;;2.75;2.55;;;;;;;15.31;74.81;98848.32;1686893;84;20936;-63
2022/05/14 03:32:29;;;;;;;3.72;2.70;;;;;;;15.31;74.80;98845.13;1654961;86;21039;-64
2022/05/14 03:34:58;;;;;;;3.20;2.15;;;;;;;15.33;74.92;98841.70;1651803;86;21569;-64
2022/05/14 03:37:25;;;;;;;3.55;2.33;;;;;;;15.38;75.01;98846.44;1662879;85;21075;-64
2022/05/14 03:39:51;;;;;;;2.00;1.80;;;;;;;15.42;75.05;98841.77;1679352;85;21110;-63
2022/05/14 03:42:18;;;;;;;1.95;1.60;;;;;;;15.46;74.87;98846.73;1679314;85;20953;-64
2022/05/14 03:44:48;;;;;;;3.25;2.20;;;;;;;15.47;74.57;98849.18;1679368;85;21464;-64
2022/05/14 03:47:15;;;;;;;2.98;1.95;;;;;;;15.49;74.59;98855.69;1674851;85;21479;-63
2022/05/14 03:49:42;;;;;;;2.40;2.20;;;;;;;15.51;74.24;98859.79;1679374;85;21483;-62
2022/05/14 03:52:10;;;;;;;2.25;2.02;;;;;;;15.55;73.98;98860.16;1679317;85;21168;-64
2022/05/14 03:54:38;;;;;;;2.87;1.95;;;;;;;15.65;73.72;98862.66;1679339;85;20969;-63
2022/05/14 03:57:08;;;;;;;3.17;2.42;;;;;;;15.89;74.19;98868.57;1678889;85;21050;-65
2022/05/14 03:59:35;;;;;;;3.33;2.15;;;;;;;16.25;73.83;98867.00;1679306;85;20968;-63
2022/05/14 04:02:05;;;;;;;2.17;1.90;;;;;;;16.58;72.88;98872.91;1679418;85;20996;-64
2022/05/14 04:04:32;;;;;;;3.55;2.30;;;;;;;16.86;72.00;98876.41;1679565;85;21352;-64
2022/05/14 04:06:59;;;;;;;3.20;2.15;;;;;;;17.06;70.55;98872.95;1678899;85;20990;-63
2022/05/14 04:09:26;;;;;;;2.08;1.92;;;;;;;17.16;69.29;98874.56;1679386;85;21538;-64
2022/05/14 04:11:54;;;;;;;2.55;2.35;;;;;;;17.20;68.60;98875.25;1674165;85;21494;-64
2022/05/14 04:14:22;;;;;;;3.45;2.00;;;;;;;17.19;68.15;98874.95;1673715;85;21084;-66
2022/05/14 04:16:49;;;;;;;4.30;1.77;;;;;;;17.18;67.86;98871.95;1674142;85;21838;-64
2022/05/14 04:19:19;;;;;;;2.85;1.77;;;;;;;17.18;67.66;98877.33;1673641;85;21030;-63
2022/05/14 04:21:45;;;;;;;3.65;1.72;;;;;;;17.16;67.44;98875.39;1673704;85;20947;-64
2022/05/14 04:24:11;;;;;;;2.10;1.90;;;;;;;17.16;67.14;98865.98;1673745;85;21477;-64
2022/05/14 04:26:39;;;;;;;2.67;1.90;;;;;;;17.19;67.09;98868.22;1674036;85;20971;-64
2022/05/14 04:29:06;;;;;;;3.75;2.35;;;;;;;17.25;67.15;98872.70;1674026;85;21147;-63
2022/05/14 04:31:33;;;;;;;2.47;2.02;;;;;;;17.43;67.48;98875.86;1674063;85;20948;-63
2022/05/14 04:34:00;;;;;;;2.92;1.80;;;;;;;17.73;66.63;98871.30;1681408;85;21046;-64
2022/05/14 04:36:26;;;;;;;5.03;2.20;;;;;;;18.05;65.40;98867.78;1681360;85;21010;-63
2022/05/14 04:38:54;;;;;;;3.47;2.00;;;;;;;18.36;64.33;98871.48;1681713;85;21045;-65
2022/05/14 04:41:21;;;;;;;1.98;1.75;;;;;;;18.61;63.04;98880.70;1681215;85;21248;-62
2022/05/14 04:43:48;;;;;;;2.52;1.82;;;;;;;18.74;62.52;98885.84;1681165;85;21422;-63
2022/05/14 04:46:15;;;;;;;2.05;1.92;;;;;;;18.77;62.02;98881.84;1681290;85;20899;-64
2022/05/14 04:48:42;;;;;;;2.77;1.90;;;;;;;18.69;61.43;98894.33;1681514;85;21516;-64
2022/05/14 04:51:08;;;;;;;3.45;2.52;;;;;;;18.54;61.39;98901.53;1681374;85;21054;-63
2022/05/14 04:53:35;;;;;;;2.72;2.40;;;;;;;18.39;61.34;98914.09;1681180;85;21947;-63
2022/05/14 04:56:04;;;;;;;3.62;2.85;;;;;;;18.21;61.24;98919.59;1681242;85;20986;-63
2022/05/14 04:58:31;;;;;;;4.08;2.65;;;;;;;18.04;61.71;98921.30;1681692;85;21082;-64
2022/05/14 05:00:58;;;;;;;2.52;2.33;;;;;;;17.89;61.97;98923.61;1681238;85;21030;-63
2022/05/14 05:03:27;;;;;;;2.33;2.12;;;;;;;17.75;62.30;98920.84;1681254;85;21029;-64
2022/05/14 05:05:59;;;;;;;2.37;2.17;;;;;;;17.64;62.42;98918.93;1681366;85;21991;-64
2022/05/14 05:08:29;;;;;;;2.00;1.90;;;;;;;17.53;62.75;98921.88;1681364;85;21098;-64
2022/05/14 05:10:56;;;;;;;4.60;2.75;;;;;;;17.42;62.56;98928.50;1681217;85;21080;-63
2022/05/14 05:13:26;;;;;;;2.65;2.10;;;;;;;17.26;62.89;98925.39;1681204;85;21569;-64
2022/05/14 05:15:53;;;;;;;2.62;2.40;;;;;;;17.13;63.13;98936.83;1681348;85;21030;-64
2022/05/14 05:18:20;;;;;;;2.67;2.47;;;;;;;16.99;63.55;98921.92;1681689;85;21523;-64
2022/05/14 05:20:49;;;;;;;4.92;2.47;;;;;;;16.87;63.83;98935.81;1681157;85;20856;-63
2022/05/14 05:23:19;;;;;;;2.58;2.37;;;;;;;16.77;64.34;98938.17;1681189;85;20939;-64
2022/05/14 05:25:46;;;;;;;2.40;2.20;;;;;;;16.67;64.78;98948.09;1681263;85;20955;-63
2022/05/14 05:28:12;;;;;;;2.50;2.30;;;;;;;16.57;65.09;98953.98;1681653;85;21121;-63
2022/05/14 05:30:39;;;;;;;5.75;2.45;;;;;;;16.53;65.48;98953.28;1683700;83;21151;-63
2022/05/14 05:33:16;;;;;;;4.30;2.52;;;;;;;16.48;65.69;98955.77;1688661;84;21013;-65
2022/05/14 05:35:42;;;;;;;2.60;2.40;;;;;;;16.44;65.97;98958.61;1685239;84;21000;-66
2022/05/14 05:38:09;;;;;;;2.55;2.25;;;;;;;16.46;66.39;98959.20;1689674;84;21005;-64
2022/05/14 05:40:36;;;;;;;2.45;2.25;;;;;;;16.48;66.50;98956.60;1677186;85;20977;-64
2022/05/14 05:43:05;;;;;;;5.22;2.67;;;;;;;16.54;66.72;98950.39;1676750;85;21262;-64
2022/05/14 05:45:32;;;;;;;9.98;2.70;;;;;;;16.60;66.47;98962.12;1702471;84;21016;-65
2022/05/14 05:48:00;;;;;;;3.92;2.62;;;;;;;16.66;66.43;98966.06;1687949;84;21502;-65
2022/05/14 05:50:33;;;;;;;2.83;2.17;;;;;;;16.78;66.47;98964.00;1673350;85;21003;-65
2022/05/14 05:52:59;;;;;;;3.85;2.75;;;;;;;16.92;66.47;98964.97;1675360;85;21041;-64
2022/05/14 05:58:11;;;;;;;5.00;2.90;;;;;;;17.26;66.37;98961.69;1703987;84;20928;-63
2022/05/14 06:00:38;;;;;;;5.08;2.37;;;;;;;17.37;65.61;98966.00;1695940;84;21072;-61
2022/05/14 06:03:05;;;;;;;2.98;2.77;;;;;;;17.40;64.74;98970.42;1675183;85;20992;-63
2022/05/14 06:05:31;;;;;;;3.98;2.30;;;;;;;17.42;64.36;98969.66;1673203;85;21018;-61
2022/05/14 06:07:59;;;;;;;4.25;3.17;;;;;;;17.40;63.67;98973.63;1678321;83;21163;-63
2022/05/14 06:10:26;;;;;;;3.17;2.90;;;;;;;17.32;63.62;98969.89;1695313;84;21501;-65
2022/05/14 06:12:52;;;;;;;4.08;2.65;;;;;;;17.26;63.83;98975.13;1707381;84;21103;-65
2022/05/14 06:15:19;;;;;;;5.35;2.85;;;;;;;17.25;64.23;98958.72;1664246;84;21206;-64
2022/05/14 06:17:47;;;;;;;3.15;2.67;;;;;;;17.25;64.66;98976.19;1664130;86;21449;-66
2022/05/14 06:20:14;;;;;;;4.65;2.55;;;;;;;17.27;64.50;98974.61;1664183;86;21273;-64
2022/05/14 06:22:42;;;;;;;2.37;2.12;;;;;;;17.29;64.09;98965.79;1664216;86;20903;-66
2022/05/14 06:25:09;;;;;;;2.98;2.70;;;;;;;17.44;64.19;98960.04;1665295;84;21571;-66
2022/05/14 06:27:37;;;;;;;3.52;2.50;;;;;;;17.58;63.40;98964.21;1707267;84;21035;-65
2022/05/14 06:30:05;;;;;;;4.85;3.27;;;;;;;17.79;63.30;98964.54;1707315;84;21072;-64
2022/05/14 06:32:31;;;;;;;3.52;2.70;;;;;;;18.11;62.76;98957.55;1707265;83;21147;-66
2022/05/14 06:34:58;;;;;;;4.67;2.58;;;;;;;18.61;61.30;98962.03;1702683;84;21043;-64
2022/05/14 06:37:24;;;;;;;5.20;2.83;;;;;;;18.89;60.67;98953.52;1678730;85;21017;-65
2022/05/14 06:39:50;;;;;;;3.22;2.87;;;;;;;19.19;59.36;98969.52;1674045;85;21127;-65
2022/05/14 06:42:18;;;;;;;4.03;3.40;;;;;;;19.43;58.25;98962.22;1678330;85;21574;-64
2022/05/14 06:44:45;;;;;;;3.80;3.37;;;;;;;19.63;57.18;98969.39;1678258;85;21164;-64
2022/05/14 06:47:11;;;;;;;4.40;4.00;;;;;;;19.81;56.19;98969.71;1678123;85;20984;-64
2022/05/14 06:49:38;;;;;;;8.50;6.62;;;;;;;20.06;55.40;98976.91;1677525;85;20978;-64
2022/05/14 06:52:05;;;;;;;4.30;3.90;;;;;;;20.54;54.47;98972.36;1675156;85;21051;-66
2022/05/14 06:54:32;;;;;;;3.60;3.15;;;;;;;20.90;53.61;98971.82;1677648;85;20960;-67
2022/05/14 06:56:59;;;;;;;2.80;2.58;;;;;;;21.81;51.82;98968.39;1681230;84;21298;-66
2022/05/14 06:59:27;;;;;;;3.52;2.87;;;;;;;22.71;49.70;98968.41;1664004;84;21667;-66
2022/05/14 07:01:53;;;;;;;4.22;2.83;;;;;;;23.71;47.37;98967.31;1691688;84;21493;-67
2022/05/14 07:07:06;;;;;;;4.97;3.08;;;;;;;25.95;42.80;98958.02;1682546;85;20911;-66
2022/05/14 07:09:34;;;;;;;4.17;2.10;;;;;;;27.02;39.87;98957.42;1668923;83;21477;-66
2022/05/14 07:12:08;;;;;;;2.75;2.10;;;;;;;27.96;38.02;98952.42;1673493;85;20967;-66
2022/05/14 07:14:34;;;;;;;7.08;2.52;;;;;;;28.72;36.14;98955.35;1701693;84;21060;-66
2022/05/14 07:17:02;;;;;;;3.65;2.20;;;;;;;29.52;34.02;98952.16;1707143;84;21000;-66
2022/05/14 07:19:29;;;;;;;3.10;2.02;;;;;;;30.04;32.41;98943.34;1679911;84;21090;-67
2022/05/14 07:21:55;;;;;;;2.58;2.02;;;;;;;30.24;32.17;98947.00;1675802;83;22099;-67
2022/05/14 07:24:26;;;;;;;4.72;2.45;;;;;;;30.90;31.35;98943.94;1680778;83;21079;-65
2022/05/14 07:26:55;;;;;;;2.70;2.50;;;;;;;31.41;29.75;98936.51;1699846;83;20893;-69
2022/05/14 07:29:23;;;;;;;2.60;2.10;;;;;;;31.54;29.34;98934.23;1675423;85;21023;-65
2022/05/14 07:31:50;;;;;;;2.62;2.27;;;;;;;31.38;29.10;98932.46;1678271;85;20956;-65
2022/05/14 07:34:17;;;;;;;2.52;2.00;;;;;;;31.24;29.00;98933.69;1684126;85;21275;-68
2022/05/14 07:37:03;;;;;;;2.35;2.15;;;;;;;31.10;29.07;98934.61;1677152;83;20966;-66
2022/05/14 07:39:35;;;;;;;5.20;2.33;;;;;;;31.19;28.88;98931.91;1673439;85;21044;-64
2022/05/14 07:42:04;;;;;;;2.65;2.40;;;;;;;30.35;29.64;98932.45;1685377;85;21027;-64
2022/05/14 07:44:36;;;;;;;2.40;1.90;;;;;;;29.73;30.43;98935.53;1686036;85;20952;-66
2022/05/14 07:47:04;;;;;;;3.55;1.87;;;;;;;30.01;30.12;98931.63;1686146;85;21151;-71
2022/05/14 07:49:32;;;;;;;4.12;2.20;;;;;;;29.89;30.14;98934.11;1682443;83;21516;-66
2022/05/14 07:51:59;;;;;;;3.17;2.27;;;;;;;29.98;29.48;98933.05;1692465;83;21004;-67
2022/05/14 07:54:25;;;;;;;2.40;1.87;;;;;;;29.05;30.10;98939.67;1715656;83;20905;-63
2022/05/14 07:56:52;;;;;;;2.00;1.80;;;;;;;28.43;31.39;98941.05;1694551;83;21527;-66
2022/05/14 07:59:18;;;;;;;2.42;2.20;;;;;;;27.97;31.85;98932.74;1681360;85;21222;-66
2022/05/14 08:01:45;;;;;;;2.70;2.10;;;;;;;28.78;31.25;98935.55;1681349;85;20927;-65
2022/05/14 08:04:11;;;;;;;2.70;1.80;;;;;;;29.47;30.53;98934.47;1681312;85;21019;-65
2022/05/14 08:06:38;;;;;;;3.25;2.12;;;;;;;30.34;29.55;98924.80;1681322;85;20964;-66
2022/05/14 08:09:04;;;;;;;4.80;1.77;;;;;;;31.26;27.84;98907.52;1681570;85;21489;-65
2022/05/14 08:11:32;;;;;;;6.08;2.20;;;;;;;32.02;26.67;98911.56;1681401;85;21158;-66
2022/05/14 08:13:59;;;;;;;2.52;1.80;;;;;;;32.87;26.27;98912.01;1681271;85;20979;-66
2022/05/14 08:16:27;;;;;;;5.60;1.65;;;;;;;33.78;24.74;98907.25;1681282;85;21103;-66
2022/05/14 08:18:54;;;;;;;3.27;1.70;;;;;;;34.57;23.90;98902.91;1681389;84;20967;-66
2022/05/14 08:26:52;;;;;;;2.42;1.52;;;;;;;34.91;22.59;98911.37;1681383;85;21002;-66
2022/05/14 08:29:20;;;;;;;2.75;2.00;;;;;;;35.40;21.95;98910.04;1681234;85;21054;-67
2022/05/14 08:31:46;;;;;;;2.37;2.17;;;;;;;34.61;22.23;98911.33;1681254;85;20964;-65
2022/05/14 08:34:12;;;;;;;2.83;2.00;;;;;;;33.49;22.76;98906.69;1681281;85;21086;-65
2022/05/14 08:36:40;;;;;;;1.95;1.70;;;;;;;33.48;22.57;98908.39;1681310;85;21261;-66
2022/05/14 08:39:06;;;;;;;1.77;1.50;;;;;;;32.89;23.31;98908.91;1681321;85;20895;-67
2022/05/14 08:41:36;;;;;;;3.90;1.57;;;;;;;31.89;24.23;98900.72;1681427;85;21063;-67
2022/05/14 08:44:18;;;;;;;2.15;1.67;;;;;;;30.99;25.15;98914.07;1681572;85;20999;-68
2022/05/14 08:46:46;;;;;;;2.10;1.70;;;;;;;30.09;26.05;98914.42;1681378;85;21026;-64
2022/05/14 08:49:18;;;;;;;3.87;1.80;;;;;;;29.54;26.87;98912.38;1653963;85;21272;-66
2022/05/14 08:51:49;;;;;;;5.10;2.12;;;;;;;28.96;27.28;98913.58;1681358;85;21466;-65
2022/05/14 08:54:17;;;;;;;2.00;1.90;;;;;;;30.05;26.39;98912.63;1681499;85;20911;-65
2022/05/14 08:57:07;;;;;;;2.10;1.75;;;;;;;31.21;26.18;98902.17;1681211;85;21084;-65
2022/05/14 08:59:51;;;;;;;2.98;2.05;;;;;;;32.40;24.53;98912.27;1676912;85;21486;-66
2022/05/14 09:02:37;;;;;;;3.77;1.92;;;;;;;32.40;23.63;98899.88;1681391;85;21109;-64
2022/05/14 09:05:13;;;;;;;9.28;4.65;;;;;;;32.49;23.52;98900.09;1681371;85;20939;-63
2022/05/14 09:07:41;;;;;;;5.05;2.80;;;;;;;32.65;23.48;98905.91;1681380;85;21076;-64
2022/05/14 09:10:30;;;;;;;3.42;2.25;;;;;;;31.52;24.32;98904.88;1681421;85;20951;-63
2022/05/14 09:13:16;;;;;;;2.05;1.90;;;;;;;30.64;25.31;98905.94;1681346;85;21062;-65
2022/05/14 09:15:55;;;;;;;2.92;1.77;;;;;;;31.12;24.70;98904.09;1681382;85;21791;-65
2022/05/14 09:18:34;;;;;;;2.05;1.80;;;;;;;32.14;23.68;98891.66;1681245;85;21090;-68
2022/05/14 09:21:04;;;;;;;3.08;1.95;;;;;;;30.49;25.21;98903.86;1650381;85;21155;-67
2022/05/14 09:23:39;;;;;;;4.42;1.75;;;;;;;29.64;26.08;98903.14;1681386;85;21011;-65
2022/05/14 09:26:13;;;;;;;3.50;1.80;;;;;;;29.36;26.65;98900.44;1681600;85;20900;-66
2022/05/14 09:28:49;;;;;;;3.50;1.98;;;;;;;31.52;25.03;98894.67;1681594;85;21137;-66
2022/05/14 09:31:36;;;;;;;2.37;1.55;;;;;;;32.80;23.44;98892.41;1681446;85;20864;-68
2022/05/14 09:34:14;;;;;;;5.30;2.55;;;;;;;34.00;21.92;98885.39;1677988;85;21012;-66
2022/05/14 09:36:42;;;;;;;4.33;1.50;;;;;;;35.11;21.05;98882.88;1673814;85;21544;-64
2022/05/14 09:39:16;;;;;;;3.33;1.50;;;;;;;36.36;20.16;98880.75;1673725;85;20947;-66
2022/05/14 09:41:56;;;;;;;4.33;1.40;;;;;;;37.31;19.13;98881.63;1674041;85;21770;-66
2022/05/14 09:44:39;;;;;;;3.25;1.52;;;;;;;38.20;17.85;98874.89;1673538;85;20999;-65
2022/05/14 09:47:11;;;;;;;3.52;0.90;;;;;;;38.96;17.27;98878.70;1673648;85;20940;-66
2022/05/14 09:49:40;;;;;;;3.20;1.35;;;;;;;39.65;16.39;98876.64;1673741;85;21490;-65
2022/05/14 09:52:10;;;;;;;1.67;1.05;;;;;;;38.52;16.40;98872.75;1673861;85;20936;-64
2022/05/14 09:54:48;;;;;;;4.42;1.10;;;;;;;38.57;16.21;98865.50;1673605;85;22400;-65
2022/05/14 09:57:44;;;;;;;1.10;0.98;;;;;;;38.89;16.04;98873.84;1673586;85;20956;-65
2022/05/14 10:00:36;;;;;;;1.42;0.80;;;;;;;38.96;15.44;98873.73;1673928;85;20940;-64
2022/05/14 10:03:37;;;;;;;1.62;1.05;;;;;;;37.97;15.67;98878.20;1673592;85;20964;-67
2022/05/14 10:06:43;;;;;;;1.82;1.00;;;;;;;36.51;16.94;98877.80;1673696;85;20952;-66
2022/05/14 10:09:38;;;;;;;5.67;2.67;;;;;;;34.22;18.98;98887.83;1663035;85;21960;-64
2022/05/14 10:12:16;;;;;;;2.92;1.70;;;;;;;32.58;20.29;98883.02;1673806;85;20928;-65
2022/05/14 10:15:04;;;;;;;1.98;0.82;;;;;;;31.20;21.59;98886.83;1673486;85;21067;-65
2022/05/14 10:18:00;;;;;;;1.85;1.15;;;;;;;30.15;22.59;98890.44;1673718;85;21046;-66
2022/05/14 10:20:50;;;;;;;;;;;;;;;29.27;23.64;98890.52;1637411;84;21421;-66
2022/05/14 10:26:59;;;;;;;6.78;1.42;;;;;;;28.13;25.46;98903.52;1673643;85;20948;-64
2022/05/14 10:29:56;;;;;;;1.40;1.00;;;;;;;27.56;26.71;98884.68;1673747;85;20904;-65
2022/05/14 10:32:26;;;;;;;3.42;0.95;;;;;;;27.33;27.64;98893.16;1673897;85;20999;-66
2022/05/14 10:35:34;;;;;;;1.02;0.70;;;;;;;27.15;26.99;98895.86;1673743;84;21055;-66
2022/05/14 10:38:09;;;;;;;2.25;0.90;;;;;;;26.83;27.04;98889.67;1673843;85;21970;-67
2022/05/14 10:40:41;;;;;;;;;;;;;;;26.52;27.83;98881.52;1672729;85;21517;-66
2022/05/14 10:43:25;;;;;;;3.50;1.50;;;;;;;26.24;28.61;98885.88;1674694;85;20206;-67
2022/05/14 10:45:55;;;;;;;3.62;0.72;;;;;;;26.01;28.86;98893.40;1641244;85;21010;-65
2022/05/14 10:48:39;;;;;;;3.10;1.17;;;;;;;25.65;28.88;98894.98;1673661;85;20967;-66
2022/05/14 10:51:07;;;;;;;1.30;1.10;;;;;;;25.23;29.52;98885.14;1673857;85;21162;-65
2022/05/14 10:53:37;;;;;;;3.45;1.00;;;;;;;24.90;30.23;98899.39;1673729;85;21034;-65
2022/05/14 10:56:24;;;;;;;2.55;1.10;;;;;;;24.66;30.63;98904.63;1676785;85;21023;-64
2022/05/14 10:59:05;;;;;;;2.02;0.78;;;;;;;24.45;31.36;98898.41;1674061;85;20963;-65
2022/05/14 11:01:54;;;;;;;5.58;5.08;;;;;;;24.41;31.69;98899.20;1673302;85;20995;-67
2022/05/14 11:04:30;;;;;;;2.22;1.42;;;;;;;24.31;31.65;98895.95;1673925;85;22373;-65
2022/05/14 11:07:01;;;;;;;;;;;;;;;24.33;31.62;98896.49;1676301;85;21442;-66
2022/05/14 11:09:39;;;;;;;2.22;1.07;;;;;;;24.20;31.48;98892.97;1673991;85;20105;-62
2022/05/14 11:12:19;;;;;;;2.10;1.20;;;;;;;24.00;31.94;98892.94;1673986;85;20923;-64
2022/05/14 11:14:49;;;;;;;2.95;0.93;;;;;;;23.82;32.11;98881.25;1673884;85;20935;-66
2022/05/14 11:17:23;;;;;;;3.20;1.17;;;;;;;23.57;32.55;98909.16;1673682;85;21109;-66
2022/05/14 11:20:10;;;;;;;3.87;1.40;;;;;;;23.37;32.93;98903.68;1673857;85;20919;-65
2022/05/14 11:22:49;;;;;;;4.65;0.90;;;;;;;23.11;32.83;98901.38;1673054;85;21254;-66
2022/05/14 11:25:25;;;;;;;3.85;1.12;;;;;;;22.88;33.40;98910.49;1673763;85;20973;-66
2022/05/14 11:28:18;;;;;;;2.37;0.90;;;;;;;22.67;33.69;98906.32;1673831;85;20907;-65
2022/05/14 11:30:54;;;;;;;1.25;0.80;;;;;;;22.40;33.81;98904.20;1673868;85;21482;-64
2022/05/14 11:33:28;;;;;;;2.25;1.10;;;;;;;22.16;34.17;98905.63;1704794;83;21025;-67
2022/05/14 11:35:57;;;;;;;6.67;1.15;;;;;;;22.04;34.22;98905.81;1718227;82;20903;-65
2022/05/14 11:38:29;;;;;;;1.92;1.25;;;;;;;22.00;33.97;98914.16;1718580;83;21598;-64
2022/05/14 11:41:12;;;;;;;2.30;1.00;;;;;;;22.07;34.08;98918.02;1718792;83;21432;-66
2022/05/14 11:43:47;;;;;;;3.55;0.72;;;;;;;22.12;33.44;98920.78;1714976;83;21770;-67
2022/05/14 11:46:48;;;;;;;2.70;1.43;;;;;;;22.24;33.31;98913.84;1718981;83;20938;-65
2022/05/14 11:49:37;;;;;;;1.77;1.10;;;;;;;22.36;33.49;98913.94;1719547;83;20989;-66
2022/05/14 11:52:24;;;;;;;1.50;1.37;;;;;;;22.52;33.41;98916.22;1718641;83;21500;-65
2022/05/14 11:55:05;;;;;;;0.82;0.78;;;;;;;22.60;33.94;98916.52;1717809;83;21551;-66
2022/05/14 11:57:52;;;;;;;3.60;1.00;;;;;;;22.65;34.10;98922.57;1718451;82;20903;-65
2022/05/14 12:00:32;;;;;;;3.30;0.90;;;;;;;22.62;33.73;98931.19;1693899;83;20942;-65
2022/05/14 12:03:28;;;;;;;2.22;0.95;;;;;;;22.45;33.49;98925.91;1687044;85;21456;-65
2022/05/14 12:06:06;;;;;;;3.43;1.13;;;;;;;22.29;33.73;98928.22;1687279;85;21498;-66
2022/05/14 12:09:02;;;;;;;2.02;1.12;;;;;;;22.11;34.15;98936.20;1686597;84;20967;-67
2022/05/14 12:12:04;;;;;;;1.25;1.10;;;;;;;22.07;34.56;98928.33;1674590;85;21330;-64